sensor_id;sensor_type;location;lat;lon;timestamp;temperature;humidity
1958;DHT22;979;51.076;13.748;2023-07-31T00:00:58;18.40;82.60
1958;DHT22;979;51.076;13.748;2023-07-31T00:03:29;18.50;82.30
1958;DHT22;979;51.076;13.748;2023-07-31T00:05:57;18.40;82.00
1958;DHT22;979;51.076;13.748;2023-07-31T00:08:26;18.40;81.90
1958;DHT22;979;51.076;13.748;2023-07-31T00:10:55;18.50;81.70
1958;DHT22;979;51.076;13.748;2023-07-31T00:13:23;18.40;81.40
1958;DHT22;979;51.076;13.748;2023-07-31T00:15:51;18.40;81.10
1958;DHT22;979;51.076;13.748;2023-07-31T00:18:20;18.40;81.10
1958;DHT22;979;51.076;13.748;2023-07-31T00:20:50;18.40;80.90
1958;DHT22;979;51.076;13.748;2023-07-31T00:23:19;18.40;80.80
1958;DHT22;979;51.076;13.748;2023-07-31T00:25:48;18.40;80.70
1958;DHT22;979;51.076;13.748;2023-07-31T00:28:16;18.40;80.70
1958;DHT22;979;51.076;13.748;2023-07-31T00:30:45;18.40;80.90
1958;DHT22;979;51.076;13.748;2023-07-31T00:33:13;18.40;81.10
1958;DHT22;979;51.076;13.748;2023-07-31T00:35:41;18.40;81.10
1958;DHT22;979;51.076;13.748;2023-07-31T00:38:09;18.40;81.20
1958;DHT22;979;51.076;13.748;2023-07-31T00:40:39;18.40;81.30
1958;DHT22;979;51.076;13.748;2023-07-31T00:43:09;18.30;81.30
1958;DHT22;979;51.076;13.748;2023-07-31T00:45:37;18.30;81.40
1958;DHT22;979;51.076;13.748;2023-07-31T00:48:08;18.30;81.40
1958;DHT22;979;51.076;13.748;2023-07-31T00:50:36;18.30;81.50
1958;DHT22;979;51.076;13.748;2023-07-31T00:53:04;18.20;81.50
1958;DHT22;979;51.076;13.748;2023-07-31T00:55:33;18.20;81.50
1958;DHT22;979;51.076;13.748;2023-07-31T00:58:01;18.20;81.50
1958;DHT22;979;51.076;13.748;2023-07-31T01:00:31;18.20;81.50
1958;DHT22;979;51.076;13.748;2023-07-31T01:02:59;18.20;81.60
1958;DHT22;979;51.076;13.748;2023-07-31T01:05:34;18.10;81.50
1958;DHT22;979;51.076;13.748;2023-07-31T01:08:11;18.20;81.60
1958;DHT22;979;51.076;13.748;2023-07-31T01:10:48;18.10;81.50
1958;DHT22;979;51.076;13.748;2023-07-31T01:13:18;18.10;81.50
1958;DHT22;979;51.076;13.748;2023-07-31T01:15:48;18.10;82.20
1958;DHT22;979;51.076;13.748;2023-07-31T01:18:20;18.10;81.50
1958;DHT22;979;51.076;13.748;2023-07-31T01:20:54;18.10;81.50
1958;DHT22;979;51.076;13.748;2023-07-31T01:23:40;18.10;81.40
1958;DHT22;979;51.076;13.748;2023-07-31T01:26:19;18.10;81.40
1958;DHT22;979;51.076;13.748;2023-07-31T01:28:55;18.10;81.40
1958;DHT22;979;51.076;13.748;2023-07-31T01:31:25;18.10;81.20
1958;DHT22;979;51.076;13.748;2023-07-31T01:34:00;18.10;81.10
1958;DHT22;979;51.076;13.748;2023-07-31T01:36:30;18.10;80.90
1958;DHT22;979;51.076;13.748;2023-07-31T01:38:59;18.10;80.90
1958;DHT22;979;51.076;13.748;2023-07-31T01:41:29;18.10;80.70
1958;DHT22;979;51.076;13.748;2023-07-31T01:43:59;18.20;80.70
1958;DHT22;979;51.076;13.748;2023-07-31T01:46:27;18.20;80.60
1958;DHT22;979;51.076;13.748;2023-07-31T01:48:55;18.20;80.50
1958;DHT22;979;51.076;13.748;2023-07-31T01:51:24;18.20;80.30
1958;DHT22;979;51.076;13.748;2023-07-31T01:53:52;18.30;80.40
1958;DHT22;979;51.076;13.748;2023-07-31T01:56:22;18.30;80.30
1958;DHT22;979;51.076;13.748;2023-07-31T01:58:54;18.30;80.10
1958;DHT22;979;51.076;13.748;2023-07-31T02:01:22;18.30;79.80
1958;DHT22;979;51.076;13.748;2023-07-31T02:03:51;18.40;79.80
1958;DHT22;979;51.076;13.748;2023-07-31T02:06:22;18.50;79.70
1958;DHT22;979;51.076;13.748;2023-07-31T02:08:50;18.50;79.50
1958;DHT22;979;51.076;13.748;2023-07-31T02:11:21;18.60;79.40
1958;DHT22;979;51.076;13.748;2023-07-31T02:13:50;18.70;79.20
1958;DHT22;979;51.076;13.748;2023-07-31T02:16:19;18.70;79.00
1958;DHT22;979;51.076;13.748;2023-07-31T02:18:47;18.80;78.80
1958;DHT22;979;51.076;13.748;2023-07-31T02:21:16;18.80;78.60
1958;DHT22;979;51.076;13.748;2023-07-31T02:23:46;18.90;78.40
1958;DHT22;979;51.076;13.748;2023-07-31T02:26:14;19.00;78.40
1958;DHT22;979;51.076;13.748;2023-07-31T02:28:43;19.00;78.20
1958;DHT22;979;51.076;13.748;2023-07-31T02:31:12;19.10;78.10
1958;DHT22;979;51.076;13.748;2023-07-31T02:33:41;19.10;77.90
1958;DHT22;979;51.076;13.748;2023-07-31T02:36:10;19.10;77.60
1958;DHT22;979;51.076;13.748;2023-07-31T02:38:38;19.10;77.50
1958;DHT22;979;51.076;13.748;2023-07-31T02:41:06;19.20;77.30
1958;DHT22;979;51.076;13.748;2023-07-31T02:43:34;19.20;77.00
1958;DHT22;979;51.076;13.748;2023-07-31T02:46:05;19.20;76.80
1958;DHT22;979;51.076;13.748;2023-07-31T02:48:33;19.30;76.80
1958;DHT22;979;51.076;13.748;2023-07-31T02:51:03;19.30;76.50
1958;DHT22;979;51.076;13.748;2023-07-31T02:53:31;19.30;76.50
1958;DHT22;979;51.076;13.748;2023-07-31T02:56:01;19.30;76.40
1958;DHT22;979;51.076;13.748;2023-07-31T02:58:32;19.20;76.20
1958;DHT22;979;51.076;13.748;2023-07-31T03:01:02;19.20;76.20
1958;DHT22;979;51.076;13.748;2023-07-31T03:03:30;19.20;76.10
1958;DHT22;979;51.076;13.748;2023-07-31T03:05:58;19.20;76.10
1958;DHT22;979;51.076;13.748;2023-07-31T03:08:28;19.20;76.80
1958;DHT22;979;51.076;13.748;2023-07-31T03:10:58;19.20;75.90
1958;DHT22;979;51.076;13.748;2023-07-31T03:13:28;19.30;75.80
1958;DHT22;979;51.076;13.748;2023-07-31T03:15:56;19.30;75.50
1958;DHT22;979;51.076;13.748;2023-07-31T03:18:25;19.30;75.20
1958;DHT22;979;51.076;13.748;2023-07-31T03:20:55;19.30;75.00
1958;DHT22;979;51.076;13.748;2023-07-31T03:23:23;19.40;74.40
1958;DHT22;979;51.076;13.748;2023-07-31T03:25:58;19.40;74.20
1958;DHT22;979;51.076;13.748;2023-07-31T03:28:29;19.50;73.80
1958;DHT22;979;51.076;13.748;2023-07-31T03:31:00;19.50;73.80
1958;DHT22;979;51.076;13.748;2023-07-31T03:33:29;19.60;73.80
1958;DHT22;979;51.076;13.748;2023-07-31T03:36:00;19.60;73.50
1958;DHT22;979;51.076;13.748;2023-07-31T03:38:29;19.60;73.40
1958;DHT22;979;51.076;13.748;2023-07-31T03:41:01;19.60;73.50
1958;DHT22;979;51.076;13.748;2023-07-31T03:43:29;19.60;73.60
1958;DHT22;979;51.076;13.748;2023-07-31T03:45:58;19.60;73.80
1958;DHT22;979;51.076;13.748;2023-07-31T03:48:27;19.60;74.00
1958;DHT22;979;51.076;13.748;2023-07-31T03:50:55;19.60;74.40
1958;DHT22;979;51.076;13.748;2023-07-31T03:53:26;19.60;74.80
1958;DHT22;979;51.076;13.748;2023-07-31T03:55:54;19.50;75.20
1958;DHT22;979;51.076;13.748;2023-07-31T03:58:23;19.40;75.50
1958;DHT22;979;51.076;13.748;2023-07-31T04:00:52;19.40;75.90
1958;DHT22;979;51.076;13.748;2023-07-31T04:03:22;19.40;76.20
1958;DHT22;979;51.076;13.748;2023-07-31T04:05:50;19.40;76.50
1958;DHT22;979;51.076;13.748;2023-07-31T04:08:19;19.40;76.80
1958;DHT22;979;51.076;13.748;2023-07-31T04:10:52;19.40;76.90
1958;DHT22;979;51.076;13.748;2023-07-31T04:13:24;19.40;77.10
1958;DHT22;979;51.076;13.748;2023-07-31T04:15:55;19.40;77.30
1958;DHT22;979;51.076;13.748;2023-07-31T04:18:26;19.40;77.40
1958;DHT22;979;51.076;13.748;2023-07-31T04:20:54;19.30;77.40
1958;DHT22;979;51.076;13.748;2023-07-31T04:23:25;19.30;77.60
1958;DHT22;979;51.076;13.748;2023-07-31T04:25:53;19.30;77.90
1958;DHT22;979;51.076;13.748;2023-07-31T04:28:21;19.30;78.20
1958;DHT22;979;51.076;13.748;2023-07-31T04:30:51;19.30;78.40
1958;DHT22;979;51.076;13.748;2023-07-31T04:33:19;19.30;78.60
1958;DHT22;979;51.076;13.748;2023-07-31T04:35:51;19.30;79.70
1958;DHT22;979;51.076;13.748;2023-07-31T04:38:23;19.20;79.00
1958;DHT22;979;51.076;13.748;2023-07-31T04:40:51;19.20;79.30
1958;DHT22;979;51.076;13.748;2023-07-31T04:43:19;19.20;79.50
1958;DHT22;979;51.076;13.748;2023-07-31T04:45:47;19.20;79.80
1958;DHT22;979;51.076;13.748;2023-07-31T04:48:18;19.30;80.10
1958;DHT22;979;51.076;13.748;2023-07-31T04:50:46;19.30;80.30
1958;DHT22;979;51.076;13.748;2023-07-31T04:53:17;19.30;80.30
1958;DHT22;979;51.076;13.748;2023-07-31T04:55:45;19.30;80.40
1958;DHT22;979;51.076;13.748;2023-07-31T04:58:13;19.30;80.60
1958;DHT22;979;51.076;13.748;2023-07-31T05:00:41;19.30;80.80
1958;DHT22;979;51.076;13.748;2023-07-31T05:03:09;19.30;81.00
1958;DHT22;979;51.076;13.748;2023-07-31T05:05:42;19.30;81.20
1958;DHT22;979;51.076;13.748;2023-07-31T05:08:10;19.30;81.30
1958;DHT22;979;51.076;13.748;2023-07-31T05:10:38;19.40;81.30
1958;DHT22;979;51.076;13.748;2023-07-31T05:13:06;19.30;81.10
1958;DHT22;979;51.076;13.748;2023-07-31T05:15:35;19.30;81.30
1958;DHT22;979;51.076;13.748;2023-07-31T05:18:03;19.40;81.50
1958;DHT22;979;51.076;13.748;2023-07-31T05:20:31;19.40;82.10
1958;DHT22;979;51.076;13.748;2023-07-31T05:23:01;19.40;81.30
1958;DHT22;979;51.076;13.748;2023-07-31T05:25:31;19.50;81.30
1958;DHT22;979;51.076;13.748;2023-07-31T05:28:04;19.50;81.10
1958;DHT22;979;51.076;13.748;2023-07-31T05:30:32;19.50;81.10
1958;DHT22;979;51.076;13.748;2023-07-31T05:33:01;19.60;81.20
1958;DHT22;979;51.076;13.748;2023-07-31T05:35:29;19.60;81.20
1958;DHT22;979;51.076;13.748;2023-07-31T05:38:01;19.60;81.00
1958;DHT22;979;51.076;13.748;2023-07-31T05:40:32;19.60;80.90
1958;DHT22;979;51.076;13.748;2023-07-31T05:43:00;19.60;81.00
1958;DHT22;979;51.076;13.748;2023-07-31T05:45:28;19.70;81.00
1958;DHT22;979;51.076;13.748;2023-07-31T05:47:56;19.70;80.90
1958;DHT22;979;51.076;13.748;2023-07-31T05:50:25;19.70;80.90
1958;DHT22;979;51.076;13.748;2023-07-31T05:52:55;19.70;80.60
1958;DHT22;979;51.076;13.748;2023-07-31T05:55:25;19.80;80.70
1958;DHT22;979;51.076;13.748;2023-07-31T05:57:54;19.80;80.70
1958;DHT22;979;51.076;13.748;2023-07-31T06:00:24;19.80;80.70
1958;DHT22;979;51.076;13.748;2023-07-31T06:02:55;19.80;80.60
1958;DHT22;979;51.076;13.748;2023-07-31T06:05:23;19.80;80.60
1958;DHT22;979;51.076;13.748;2023-07-31T06:07:51;19.80;80.70
1958;DHT22;979;51.076;13.748;2023-07-31T06:10:20;19.80;80.70
1958;DHT22;979;51.076;13.748;2023-07-31T06:12:50;19.80;80.70
1958;DHT22;979;51.076;13.748;2023-07-31T06:15:19;19.80;80.60
1958;DHT22;979;51.076;13.748;2023-07-31T06:17:49;19.80;80.50
1958;DHT22;979;51.076;13.748;2023-07-31T06:20:18;19.80;80.50
1958;DHT22;979;51.076;13.748;2023-07-31T06:22:47;19.80;80.60
1958;DHT22;979;51.076;13.748;2023-07-31T06:25:17;19.90;80.60
1958;DHT22;979;51.076;13.748;2023-07-31T06:27:48;19.90;80.70
1958;DHT22;979;51.076;13.748;2023-07-31T06:30:19;20.00;80.80
1958;DHT22;979;51.076;13.748;2023-07-31T06:32:49;20.00;81.30
1958;DHT22;979;51.076;13.748;2023-07-31T06:35:18;20.10;80.40
1958;DHT22;979;51.076;13.748;2023-07-31T06:37:46;20.10;80.20
1958;DHT22;979;51.076;13.748;2023-07-31T06:40:14;20.10;80.20
1958;DHT22;979;51.076;13.748;2023-07-31T06:42:43;20.10;80.00
1958;DHT22;979;51.076;13.748;2023-07-31T06:45:11;20.10;80.00
1958;DHT22;979;51.076;13.748;2023-07-31T06:47:43;20.10;79.80
1958;DHT22;979;51.076;13.748;2023-07-31T06:50:14;20.20;80.00
1958;DHT22;979;51.076;13.748;2023-07-31T06:52:42;20.10;80.00
1958;DHT22;979;51.076;13.748;2023-07-31T06:55:17;20.20;80.20
1958;DHT22;979;51.076;13.748;2023-07-31T06:57:47;20.20;80.20
1958;DHT22;979;51.076;13.748;2023-07-31T07:00:15;20.20;80.10
1958;DHT22;979;51.076;13.748;2023-07-31T07:02:47;20.30;80.20
1958;DHT22;979;51.076;13.748;2023-07-31T07:05:16;20.30;80.20
1958;DHT22;979;51.076;13.748;2023-07-31T07:07:45;20.40;80.20
1958;DHT22;979;51.076;13.748;2023-07-31T07:10:13;20.50;80.10
1958;DHT22;979;51.076;13.748;2023-07-31T07:12:41;20.50;79.90
1958;DHT22;979;51.076;13.748;2023-07-31T07:15:12;20.50;79.80
1958;DHT22;979;51.076;13.748;2023-07-31T07:17:40;20.60;79.70
1958;DHT22;979;51.076;13.748;2023-07-31T07:20:10;20.70;79.50
1958;DHT22;979;51.076;13.748;2023-07-31T07:22:41;20.70;79.40
1958;DHT22;979;51.076;13.748;2023-07-31T07:25:10;20.80;79.40
1958;DHT22;979;51.076;13.748;2023-07-31T07:27:48;20.90;79.20
1958;DHT22;979;51.076;13.748;2023-07-31T07:30:19;21.00;78.90
1958;DHT22;979;51.076;13.748;2023-07-31T07:32:50;21.10;78.90
1958;DHT22;979;51.076;13.748;2023-07-31T07:35:30;21.20;78.70
1958;DHT22;979;51.076;13.748;2023-07-31T07:37:58;21.30;78.30
1958;DHT22;979;51.076;13.748;2023-07-31T07:40:27;21.30;78.20
1958;DHT22;979;51.076;13.748;2023-07-31T07:42:55;21.50;78.30
1958;DHT22;979;51.076;13.748;2023-07-31T07:45:23;21.60;77.90
1958;DHT22;979;51.076;13.748;2023-07-31T07:47:54;21.70;77.60
1958;DHT22;979;51.076;13.748;2023-07-31T07:50:22;21.90;77.50
1958;DHT22;979;51.076;13.748;2023-07-31T07:52:52;21.90;76.90
1958;DHT22;979;51.076;13.748;2023-07-31T07:55:22;21.90;76.60
1958;DHT22;979;51.076;13.748;2023-07-31T07:57:51;22.00;76.60
1958;DHT22;979;51.076;13.748;2023-07-31T08:00:19;22.00;76.10
1958;DHT22;979;51.076;13.748;2023-07-31T08:02:47;22.00;75.90
1958;DHT22;979;51.076;13.748;2023-07-31T08:05:16;22.00;75.60
1958;DHT22;979;51.076;13.748;2023-07-31T08:07:45;22.00;75.70
1958;DHT22;979;51.076;13.748;2023-07-31T08:10:17;22.00;75.60
1958;DHT22;979;51.076;13.748;2023-07-31T08:12:45;22.10;75.30
1958;DHT22;979;51.076;13.748;2023-07-31T08:15:13;22.20;75.40
1958;DHT22;979;51.076;13.748;2023-07-31T08:17:41;22.20;75.10
1958;DHT22;979;51.076;13.748;2023-07-31T08:20:11;22.30;74.90
1958;DHT22;979;51.076;13.748;2023-07-31T08:22:39;22.40;74.60
1958;DHT22;979;51.076;13.748;2023-07-31T08:25:08;22.40;74.40
1958;DHT22;979;51.076;13.748;2023-07-31T08:27:37;22.50;74.20
1958;DHT22;979;51.076;13.748;2023-07-31T08:30:06;22.50;74.20
1958;DHT22;979;51.076;13.748;2023-07-31T08:32:35;22.60;73.90
1958;DHT22;979;51.076;13.748;2023-07-31T08:35:04;22.60;73.20
1958;DHT22;979;51.076;13.748;2023-07-31T08:37:32;22.60;73.00
1958;DHT22;979;51.076;13.748;2023-07-31T08:40:00;22.50;73.10
1958;DHT22;979;51.076;13.748;2023-07-31T08:42:29;22.50;73.00
1958;DHT22;979;51.076;13.748;2023-07-31T08:44:59;22.50;72.80
1958;DHT22;979;51.076;13.748;2023-07-31T08:47:31;22.50;72.50
1958;DHT22;979;51.076;13.748;2023-07-31T08:49:59;22.70;72.50
1958;DHT22;979;51.076;13.748;2023-07-31T08:52:28;22.50;72.10
1958;DHT22;979;51.076;13.748;2023-07-31T08:54:59;22.40;72.20
1958;DHT22;979;51.076;13.748;2023-07-31T08:57:27;22.40;72.00
1958;DHT22;979;51.076;13.748;2023-07-31T08:59:56;22.30;71.90
1958;DHT22;979;51.076;13.748;2023-07-31T09:02:31;22.30;71.90
1958;DHT22;979;51.076;13.748;2023-07-31T09:05:03;22.30;71.80
1958;DHT22;979;51.076;13.748;2023-07-31T09:07:35;22.30;72.00
1958;DHT22;979;51.076;13.748;2023-07-31T09:10:04;22.30;71.80
1958;DHT22;979;51.076;13.748;2023-07-31T09:12:33;22.30;71.50
1958;DHT22;979;51.076;13.748;2023-07-31T09:15:05;22.30;71.50
1958;DHT22;979;51.076;13.748;2023-07-31T09:17:35;22.20;71.50
1958;DHT22;979;51.076;13.748;2023-07-31T09:20:13;22.30;71.50
1958;DHT22;979;51.076;13.748;2023-07-31T09:22:42;22.30;71.30
1958;DHT22;979;51.076;13.748;2023-07-31T09:25:17;22.20;71.30
1958;DHT22;979;51.076;13.748;2023-07-31T09:27:49;22.30;71.10
1958;DHT22;979;51.076;13.748;2023-07-31T09:30:18;22.20;71.00
1958;DHT22;979;51.076;13.748;2023-07-31T09:32:52;22.30;71.10
1958;DHT22;979;51.076;13.748;2023-07-31T09:35:29;22.30;71.00
1958;DHT22;979;51.076;13.748;2023-07-31T09:38:01;22.30;71.00
1958;DHT22;979;51.076;13.748;2023-07-31T09:40:34;22.40;71.00
1958;DHT22;979;51.076;13.748;2023-07-31T09:43:04;22.40;70.90
1958;DHT22;979;51.076;13.748;2023-07-31T09:45:34;22.40;70.80
1958;DHT22;979;51.076;13.748;2023-07-31T09:48:13;22.50;70.90
1958;DHT22;979;51.076;13.748;2023-07-31T09:50:44;22.50;70.70
1958;DHT22;979;51.076;13.748;2023-07-31T09:53:12;22.60;70.50
1958;DHT22;979;51.076;13.748;2023-07-31T09:55:43;22.60;70.50
1958;DHT22;979;51.076;13.748;2023-07-31T09:58:12;22.60;70.30
1958;DHT22;979;51.076;13.748;2023-07-31T10:00:41;22.70;70.30
1958;DHT22;979;51.076;13.748;2023-07-31T10:03:11;22.70;70.20
1958;DHT22;979;51.076;13.748;2023-07-31T10:05:43;22.70;70.70
1958;DHT22;979;51.076;13.748;2023-07-31T10:08:20;22.70;70.00
1958;DHT22;979;51.076;13.748;2023-07-31T10:10:49;22.70;70.00
1958;DHT22;979;51.076;13.748;2023-07-31T10:13:17;22.80;70.20
1958;DHT22;979;51.076;13.748;2023-07-31T10:15:49;22.90;70.00
1958;DHT22;979;51.076;13.748;2023-07-31T10:18:19;22.90;70.00
1958;DHT22;979;51.076;13.748;2023-07-31T10:20:48;22.90;69.80
1958;DHT22;979;51.076;13.748;2023-07-31T10:23:17;22.90;70.30
1958;DHT22;979;51.076;13.748;2023-07-31T10:25:46;23.00;69.60
1958;DHT22;979;51.076;13.748;2023-07-31T10:28:15;23.00;69.40
1958;DHT22;979;51.076;13.748;2023-07-31T10:30:43;23.00;69.50
1958;DHT22;979;51.076;13.748;2023-07-31T10:33:15;23.10;69.40
1958;DHT22;979;51.076;13.748;2023-07-31T10:35:48;23.10;69.30
1958;DHT22;979;51.076;13.748;2023-07-31T10:38:18;23.20;69.40
1958;DHT22;979;51.076;13.748;2023-07-31T10:40:46;23.30;69.20
1958;DHT22;979;51.076;13.748;2023-07-31T10:43:24;23.30;68.70
1958;DHT22;979;51.076;13.748;2023-07-31T10:45:54;23.30;68.40
1958;DHT22;979;51.076;13.748;2023-07-31T10:48:22;23.40;68.80
1958;DHT22;979;51.076;13.748;2023-07-31T10:50:55;23.50;68.40
1958;DHT22;979;51.076;13.748;2023-07-31T10:53:25;23.60;68.10
1958;DHT22;979;51.076;13.748;2023-07-31T10:55:58;23.60;67.90
1958;DHT22;979;51.076;13.748;2023-07-31T10:58:26;23.70;67.80
1958;DHT22;979;51.076;13.748;2023-07-31T11:00:58;23.70;67.90
1958;DHT22;979;51.076;13.748;2023-07-31T11:03:41;23.70;67.30
1958;DHT22;979;51.076;13.748;2023-07-31T11:06:12;23.60;67.30
1958;DHT22;979;51.076;13.748;2023-07-31T11:08:45;23.60;67.50
1958;DHT22;979;51.076;13.748;2023-07-31T11:11:16;23.70;67.60
1958;DHT22;979;51.076;13.748;2023-07-31T11:13:46;23.70;67.60
1958;DHT22;979;51.076;13.748;2023-07-31T11:16:20;23.70;67.40
1958;DHT22;979;51.076;13.748;2023-07-31T11:18:49;23.80;67.50
1958;DHT22;979;51.076;13.748;2023-07-31T11:21:24;23.80;67.50
1958;DHT22;979;51.076;13.748;2023-07-31T11:23:54;23.80;67.30
1958;DHT22;979;51.076;13.748;2023-07-31T11:26:27;23.70;67.40
1958;DHT22;979;51.076;13.748;2023-07-31T11:28:59;23.70;67.50
1958;DHT22;979;51.076;13.748;2023-07-31T11:31:28;23.60;67.80
1958;DHT22;979;51.076;13.748;2023-07-31T11:34:04;23.60;68.00
1958;DHT22;979;51.076;13.748;2023-07-31T11:36:34;23.60;68.20
1958;DHT22;979;51.076;13.748;2023-07-31T11:39:06;23.60;68.40
1958;DHT22;979;51.076;13.748;2023-07-31T11:41:34;23.60;68.60
1958;DHT22;979;51.076;13.748;2023-07-31T11:44:03;23.70;68.80
1958;DHT22;979;51.076;13.748;2023-07-31T11:46:51;23.80;68.80
1958;DHT22;979;51.076;13.748;2023-07-31T11:49:21;23.90;68.80
1958;DHT22;979;51.076;13.748;2023-07-31T11:51:51;24.10;68.80
1958;DHT22;979;51.076;13.748;2023-07-31T11:54:22;24.40;69.20
1958;DHT22;979;51.076;13.748;2023-07-31T11:56:50;24.60;68.90
1958;DHT22;979;51.076;13.748;2023-07-31T11:59:19;24.90;68.40
1958;DHT22;979;51.076;13.748;2023-07-31T12:01:47;25.10;68.00
1958;DHT22;979;51.076;13.748;2023-07-31T12:04:17;25.40;68.00
1958;DHT22;979;51.076;13.748;2023-07-31T12:06:46;25.60;67.60
1958;DHT22;979;51.076;13.748;2023-07-31T12:09:16;25.80;67.40
1958;DHT22;979;51.076;13.748;2023-07-31T12:11:45;26.10;67.10
1958;DHT22;979;51.076;13.748;2023-07-31T12:14:20;26.30;66.80
1958;DHT22;979;51.076;13.748;2023-07-31T12:16:53;26.80;65.70
1958;DHT22;979;51.076;13.748;2023-07-31T12:19:23;27.20;64.10
1958;DHT22;979;51.076;13.748;2023-07-31T12:21:53;27.40;63.50
1958;DHT22;979;51.076;13.748;2023-07-31T12:24:23;27.70;63.30
1958;DHT22;979;51.076;13.748;2023-07-31T12:26:51;27.90;62.00
1958;DHT22;979;51.076;13.748;2023-07-31T12:29:21;27.90;61.60
1958;DHT22;979;51.076;13.748;2023-07-31T12:31:49;27.80;61.30
1958;DHT22;979;51.076;13.748;2023-07-31T12:34:19;27.70;61.40
1958;DHT22;979;51.076;13.748;2023-07-31T12:36:48;27.60;61.40
1958;DHT22;979;51.076;13.748;2023-07-31T12:39:16;27.60;61.80
1958;DHT22;979;51.076;13.748;2023-07-31T12:41:46;27.60;61.20
1958;DHT22;979;51.076;13.748;2023-07-31T12:44:14;27.70;61.20
1958;DHT22;979;51.076;13.748;2023-07-31T12:46:43;27.70;60.70
1958;DHT22;979;51.076;13.748;2023-07-31T12:49:11;27.60;60.60
1958;DHT22;979;51.076;13.748;2023-07-31T12:51:40;27.60;60.90
1958;DHT22;979;51.076;13.748;2023-07-31T12:54:08;27.60;60.10
1958;DHT22;979;51.076;13.748;2023-07-31T12:56:53;27.60;59.80
1958;DHT22;979;51.076;13.748;2023-07-31T12:59:24;27.60;59.50
1958;DHT22;979;51.076;13.748;2023-07-31T13:01:53;27.50;59.10
1958;DHT22;979;51.076;13.748;2023-07-31T13:04:21;27.40;58.70
1958;DHT22;979;51.076;13.748;2023-07-31T13:06:49;27.40;58.80
1958;DHT22;979;51.076;13.748;2023-07-31T13:09:20;27.30;58.70
1958;DHT22;979;51.076;13.748;2023-07-31T13:11:48;27.30;58.60
1958;DHT22;979;51.076;13.748;2023-07-31T13:14:17;27.20;58.50
1958;DHT22;979;51.076;13.748;2023-07-31T13:16:46;27.10;58.50
1958;DHT22;979;51.076;13.748;2023-07-31T13:19:14;27.00;59.20
1958;DHT22;979;51.076;13.748;2023-07-31T13:21:42;26.90;58.80
1958;DHT22;979;51.076;13.748;2023-07-31T13:24:11;26.90;58.70
1958;DHT22;979;51.076;13.748;2023-07-31T13:26:40;26.70;58.80
1958;DHT22;979;51.076;13.748;2023-07-31T13:29:08;26.70;58.90
1958;DHT22;979;51.076;13.748;2023-07-31T13:31:39;26.60;59.10
1958;DHT22;979;51.076;13.748;2023-07-31T13:34:07;26.60;58.90
1958;DHT22;979;51.076;13.748;2023-07-31T13:36:35;26.50;59.10
1958;DHT22;979;51.076;13.748;2023-07-31T13:39:05;26.50;59.20
1958;DHT22;979;51.076;13.748;2023-07-31T13:41:33;26.60;59.00
1958;DHT22;979;51.076;13.748;2023-07-31T13:44:01;26.60;58.90
1958;DHT22;979;51.076;13.748;2023-07-31T13:46:29;26.60;58.90
1958;DHT22;979;51.076;13.748;2023-07-31T13:49:00;26.70;58.70
1958;DHT22;979;51.076;13.748;2023-07-31T13:51:29;26.80;58.60
1958;DHT22;979;51.076;13.748;2023-07-31T13:53:59;26.90;58.60
1958;DHT22;979;51.076;13.748;2023-07-31T13:56:27;26.80;58.50
1958;DHT22;979;51.076;13.748;2023-07-31T13:58:55;27.00;58.60
1958;DHT22;979;51.076;13.748;2023-07-31T14:01:24;27.00;58.40
1958;DHT22;979;51.076;13.748;2023-07-31T14:03:52;27.00;58.10
1958;DHT22;979;51.076;13.748;2023-07-31T14:06:22;27.00;58.00
1958;DHT22;979;51.076;13.748;2023-07-31T14:08:50;27.10;58.20
1958;DHT22;979;51.076;13.748;2023-07-31T14:11:18;27.30;58.30
1958;DHT22;979;51.076;13.748;2023-07-31T14:13:46;27.60;58.30
1958;DHT22;979;51.076;13.748;2023-07-31T14:16:15;27.80;58.00
1958;DHT22;979;51.076;13.748;2023-07-31T14:18:43;27.80;58.40
1958;DHT22;979;51.076;13.748;2023-07-31T14:21:16;27.80;57.60
1958;DHT22;979;51.076;13.748;2023-07-31T14:23:45;27.70;57.40
1958;DHT22;979;51.076;13.748;2023-07-31T14:26:16;27.60;57.00
1958;DHT22;979;51.076;13.748;2023-07-31T14:28:47;27.50;57.50
1958;DHT22;979;51.076;13.748;2023-07-31T14:31:17;27.50;57.70
1958;DHT22;979;51.076;13.748;2023-07-31T14:33:45;27.60;57.40
1958;DHT22;979;51.076;13.748;2023-07-31T14:36:16;27.60;57.20
1958;DHT22;979;51.076;13.748;2023-07-31T14:38:45;27.70;57.20
1958;DHT22;979;51.076;13.748;2023-07-31T14:41:14;27.90;57.30
1958;DHT22;979;51.076;13.748;2023-07-31T14:43:44;28.10;57.10
1958;DHT22;979;51.076;13.748;2023-07-31T14:46:14;28.20;57.00
1958;DHT22;979;51.076;13.748;2023-07-31T14:48:43;28.40;56.80
1958;DHT22;979;51.076;13.748;2023-07-31T14:51:11;28.40;56.10
1958;DHT22;979;51.076;13.748;2023-07-31T14:53:41;28.40;55.80
1958;DHT22;979;51.076;13.748;2023-07-31T14:56:10;28.20;55.80
1958;DHT22;979;51.076;13.748;2023-07-31T14:58:41;28.00;56.70
1958;DHT22;979;51.076;13.748;2023-07-31T15:01:09;27.90;56.40
1958;DHT22;979;51.076;13.748;2023-07-31T15:03:37;27.90;56.80
1958;DHT22;979;51.076;13.748;2023-07-31T15:06:05;28.30;57.10
1958;DHT22;979;51.076;13.748;2023-07-31T15:08:36;28.90;56.60
1958;DHT22;979;51.076;13.748;2023-07-31T15:11:05;29.50;55.80
1958;DHT22;979;51.076;13.748;2023-07-31T15:13:36;29.50;54.90
1958;DHT22;979;51.076;13.748;2023-07-31T15:16:05;29.30;54.60
1958;DHT22;979;51.076;13.748;2023-07-31T15:18:33;29.00;54.60
1958;DHT22;979;51.076;13.748;2023-07-31T15:21:01;28.60;54.80
1958;DHT22;979;51.076;13.748;2023-07-31T15:23:30;28.20;55.10
1958;DHT22;979;51.076;13.748;2023-07-31T15:25:58;28.00;55.60
1958;DHT22;979;51.076;13.748;2023-07-31T15:28:28;27.90;55.90
1958;DHT22;979;51.076;13.748;2023-07-31T15:30:58;27.80;56.20
1958;DHT22;979;51.076;13.748;2023-07-31T15:33:26;27.80;56.30
1958;DHT22;979;51.076;13.748;2023-07-31T15:35:54;27.80;56.20
1958;DHT22;979;51.076;13.748;2023-07-31T15:38:24;27.70;56.30
1958;DHT22;979;51.076;13.748;2023-07-31T15:40:52;27.50;56.40
1958;DHT22;979;51.076;13.748;2023-07-31T15:43:21;27.40;56.70
1958;DHT22;979;51.076;13.748;2023-07-31T15:45:49;27.30;57.00
1958;DHT22;979;51.076;13.748;2023-07-31T15:48:19;27.10;57.20
1958;DHT22;979;51.076;13.748;2023-07-31T15:50:47;27.00;57.40
1958;DHT22;979;51.076;13.748;2023-07-31T15:53:17;26.80;57.50
1958;DHT22;979;51.076;13.748;2023-07-31T15:55:45;26.80;57.70
1958;DHT22;979;51.076;13.748;2023-07-31T15:58:14;26.50;57.90
1958;DHT22;979;51.076;13.748;2023-07-31T16:00:42;26.60;58.10
1958;DHT22;979;51.076;13.748;2023-07-31T16:03:12;26.50;58.80
1958;DHT22;979;51.076;13.748;2023-07-31T16:05:45;26.30;58.10
1958;DHT22;979;51.076;13.748;2023-07-31T16:08:13;26.20;58.20
1958;DHT22;979;51.076;13.748;2023-07-31T16:10:42;26.10;58.30
1958;DHT22;979;51.076;13.748;2023-07-31T16:13:10;26.10;58.50
1958;DHT22;979;51.076;13.748;2023-07-31T16:15:38;26.00;58.60
1958;DHT22;979;51.076;13.748;2023-07-31T16:18:06;26.00;58.60